메인 페이지
METAR-TAF:

METAR-TAF

공항 :

에센보아 국제공항

앙카라 Esenboğa, 터키

위도: 40-07N, 경도: 032-59E, 고도: 953m

현재 날씨관측

예보는 41분 전, 00:20시(UTC)에 발표되었습니다.
3kt
온도 1°C
습도 100%
기압 1010 hPa
시정: 3200m
고도 200ft 상공 구름 조금
고도 2500ft 상공 구름 많음
고도 9000ft 상공 구름 많음
약한비, 눈, 박무

METAR: LTAC 100020Z 36003KT 3200 -RASN BR FEW002 BKN025 BKN090 01/01 Q1010 BECMG 8000

시각: 04:01 (01:01 UTC)

예보

예보는 2 시간 21분 전, 22:40시(UTC)에 발표되었습니다.
예보 대상 시간: 10일 00시부터 10일 24시까지 (UTC)
여러 방향의 바람 2kt
시정 10km 이상
고도 4000ft 상공 구름 보통
고도 10000ft 상공 구름 많음
일시적
10일 00시부터 10일 04시까지 (UTC)
시정: 3500m
고도 3000ft 상공 구름 많음
고도 8000ft 상공 구름 많음
약한비, 눈, 박무
전환 중
10일 09시부터 10일 11시까지 (UTC)
남남서15kt
일시적
10일 16시부터 10일 20시까지 (UTC)
15kt, 순간 최대 풍속 30kt
고도 3000ft 상공 구름 많음
고도 8000ft 상공 구름 많음
약한비

TAF: LTAC 092240Z 1000/1024 VRB02KT 9999 SCT040 BKN100 TEMPO 1000/1004 3500 -RASN BR BKN030 BKN080 BECMG 1009/1011 20015KT TEMPO 1016/1020 19015G30KT -RA BKN030 BKN080

4,000개 이상의 공항 관측 자료 및 예보 (METAR 및 TAF 보고).

지도상에서 검색 가능한 기상관측소가 노란 점과 빨간 점으로 표시되어 있습니다.

기상관측소 명을 보려면 표시 위로 마우스를 이동하세요.

날씨 관측과 예보를 보려면 클릭하세요.

지도 변경 : 확대하려면 엑스 표시가 있는 녹색 버튼, 축소하려면 빼기 표시가 있는 녹색 버튼, 다음 페이지의 지도를 보려면 녹색 화살표를 클릭하세요.


METAR-TAF: